METAR Data
IDs: Format: Raw Decoded Include TAF

Data at: 0454 UTC 20 Sep 2020

RODN 200412Z AUTO 00000KT 7SM RA FEW075 24/23 A2987 RMK AO2 RAB12 SLP120